Cape Bari — V7HX2 — position and weather

sailwx.info

Track history (hours):
 
Tides and Currents Weather Stations Pressure Air Temp Water Temp Dewpoint Dewpoint Depression Visibility Wind Speed Wind Dir Waves Ship Positions

Cape Bari

Last reported at 2018-May-09 04:20 UTC. Time now 2018-Jun-25 09:37 UTC.
Position N 38°19' W 034°46'.
Warning: this ship's position is 47 days out of date.

Length 283 m; draft 15 m.

Type: Tanker. MMSI: 538090174.

Date/timePositionNaut miles runAvg speedWind from/ knotsBaromVisibWave heightAir tempDewpointWater temp
2018-May-09 04:20N 38°19' W 034°46'712.4
2018-May-09 03:47N 38°19' W 034°37'412.6
2018-May-09 03:29N 38°19' W 034°33'612.7
2018-May-09 03:00N 38°18' W 034°25'812.7
2018-May-09 02:22N 38°17' W 034°15'512.8
2018-May-09 01:59N 38°16' W 034°09'613.0
2018-May-09 01:30N 38°16' W 034°01'612.9
2018-May-09 01:00N 38°15' W 033°52'912.7
2018-May-09 00:19N 38°14' W 033°41'412.5
2018-May-09 00:00N 38°14' W 033°36'612.4
2018-May-08 23:30N 38°13' W 033°29'612.4
2018-May-08 23:00N 38°12' W 033°21'612.0
2018-May-08 22:30N 38°11' W 033°13'3312.4
2018-May-08 19:48N 38°08' W 032°31'412.1
2018-May-08 19:30N 38°08' W 032°26'911.9
2018-May-08 18:45N 38°07' W 032°15'311.9
2018-May-08 18:30N 38°06' W 032°11'2611.6
2018-May-08 16:16N 38°04' W 031°38'2611.7
2018-May-08 14:04N 38°01' W 031°06'111.8
2018-May-08 14:00N 38°01' W 031°05'612.2
2018-May-08 13:30N 37°60' W 030°57'612.1
2018-May-08 13:00N 37°59' W 030°50'612.4
2018-May-08 12:30N 37°59' W 030°42'1512.1
2018-May-08 11:16N 37°57' W 030°23'312.4
2018-May-08 11:00N 37°57' W 030°19'612.0
2018-May-08 10:30N 37°56' W 030°12'612.1
2018-May-08 10:01N 37°55' W 030°04'612.1
2018-May-08 09:30N 37°55' W 029°56'612.2
2018-May-08 09:01N 37°54' W 029°49'612.3
2018-May-08 08:30N 37°54' W 029°41'612.0
2018-May-08 08:01N 37°53' W 029°33'612.4
2018-May-08 07:31N 37°52' W 029°25'612.3
2018-May-08 07:00N 37°52' W 029°18'612.4
2018-May-08 06:31N 37°51' W 029°10'612.4
2018-May-08 06:00N 37°51' W 029°02'612.5
2018-May-08 05:30N 37°50' W 028°54'612.5
2018-May-08 05:00N 37°49' W 028°46'612.5
2018-May-08 04:30N 37°48' W 028°38'612.4
2018-May-08 04:00N 37°47' W 028°31'612.3
2018-May-08 03:31N 37°47' W 028°23'612.8
2018-May-08 03:01N 37°46' W 028°15'612.6
2018-May-08 02:31N 37°46' W 028°07'612.7
2018-May-08 02:00N 37°45' W 027°59'612.5
2018-May-08 01:30N 37°44' W 027°51'612.5
2018-May-08 01:00N 37°44' W 027°43'612.3
2018-May-08 00:30N 37°43' W 027°35'612.4
2018-May-08 00:00N 37°42' W 027°28'612.4
2018-May-07 23:30N 37°42' W 027°20'612.4
2018-May-07 23:00N 37°41' W 027°12'612.3
2018-May-07 22:30N 37°40' W 027°04'612.4
2018-May-07 22:00N 37°40' W 026°57'612.4
2018-May-07 21:30N 37°40' W 026°49'612.1
2018-May-07 21:00N 37°40' W 026°41'612.0
2018-May-07 20:30N 37°38' W 026°34'612.1
2018-May-07 20:00N 37°37' W 026°26'612.3
2018-May-07 19:30N 37°36' W 026°19'611.9
2018-May-07 19:00N 37°36' W 026°11'611.8
2018-May-07 18:31N 37°35' W 026°04'612.1
2018-May-07 18:00N 37°34' W 025°56'612.1
2018-May-07 17:30N 37°33' W 025°49'612.2
2018-May-07 17:00N 37°33' W 025°41'612.2
2018-May-07 16:30N 37°32' W 025°33'612.3
2018-May-07 16:00N 37°32' W 025°26'612.3
2018-May-07 15:30N 37°31' W 025°18'612.4
2018-May-07 15:00N 37°31' W 025°10'612.2
2018-May-07 14:30N 37°30' W 025°02'612.1
2018-May-07 14:00N 37°30' W 024°55'612.1
2018-May-07 13:31N 37°29' W 024°47'612.5
2018-May-07 13:00N 37°28' W 024°40'612.1
2018-May-07 12:30N 37°27' W 024°32'611.8
2018-May-07 12:01N 37°27' W 024°25'611.8
2018-May-07 11:30N 37°26' W 024°17'611.7
2018-May-07 11:00N 37°26' W 024°10'611.8
2018-May-07 10:30N 37°25' W 024°02'612.0
2018-May-07 10:00N 37°24' W 023°55'612.0
2018-May-07 09:31N 37°23' W 023°47'612.0
2018-May-07 09:00N 37°22' W 023°40'611.8
2018-May-07 08:30N 37°22' W 023°33'611.8
2018-May-07 07:59N 37°21' W 023°25'611.8
2018-May-07 07:30N 37°21' W 023°18'712.0
2018-May-07 06:57N 37°20' W 023°10'3312.0
2018-May-07 04:13N 37°17' W 022°28'412.3
2018-May-07 03:52N 37°16' W 022°23'512.4
2018-May-07 03:29N 37°16' W 022°17'712.5
2018-May-07 02:57N 37°15' W 022°09'912.5
2018-May-07 02:16N 37°14' W 021°58'35712.4
2018-May-05 21:31N 36°36' W 014°35'10212.5
2018-May-05 13:21N 36°24' W 012°28'412.5
2018-May-05 13:00N 36°24' W 012°23'712.3
2018-May-05 12:27N 36°24' W 012°15'15112.1
2018-May-05 00:01N 36°10' W 009°08'212.4
2018-May-04 23:51N 36°10' W 009°05'1512.1
2018-May-04 22:38N 36°09' W 008°47'311.7
2018-May-04 22:24N 36°08' W 008°44'512.2
2018-May-04 22:00N 36°08' W 008°38'5112.2
2018-May-04 17:50N 36°03' W 007°35'9711.5
2018-May-04 09:24N 35°58' W 005°36'4 9.0
2018-May-04 08:59N 35°59' W 005°31'4 9.1
2018-May-04 08:30N 36°00' W 005°26'4 8.0
2018-May-04 08:00N 36°03' W 005°23'2 3.8
2018-May-04 07:30N 36°05' W 005°23'3 5.0
2018-May-04 07:00N 36°08' W 005°23'0 0.5
2018-May-04 06:20N 36°08' W 005°23'0 0.3
2018-May-04 05:56N 36°08' W 005°23'0 0.0
2018-May-04 05:26N 36°08' W 005°23'0 0.0
2018-May-04 04:56N 36°08' W 005°23'0 0.0
2018-May-04 04:14N 36°08' W 005°23'0 0.0
2018-May-04 04:00N 36°08' W 005°23'0 0.1
2018-May-04 03:29N 36°08' W 005°23'0 0.0
2018-May-04 02:32N 36°08' W 005°23'0 0.1
2018-May-04 02:26N 36°08' W 005°23'0 0.2
2018-May-04 01:57N 36°08' W 005°23'0 0.1
2018-May-04 01:26N 36°08' W 005°23'0 0.1
2018-May-04 00:59N 36°08' W 005°23'0 0.1
2018-May-04 00:26N 36°08' W 005°23'0 0.2
2018-May-03 23:56N 36°08' W 005°23'0 0.5
2018-May-03 23:20N 36°08' W 005°23'0 0.2
2018-May-03 22:50N 36°08' W 005°23'0 0.0
2018-May-03 22:20N 36°08' W 005°23'0 0.0
2018-May-03 21:56N 36°08' W 005°23'0 0.0
2018-May-03 21:26N 36°08' W 005°23'0 0.0
2018-May-03 20:56N 36°08' W 005°23'0 0.2
2018-May-03 19:38N 36°08' W 005°23'0 0.1
2018-May-03 19:29N 36°08' W 005°23'0 0.1
2018-May-03 18:26N 36°08' W 005°23'0 0.3
2018-May-03 17:59N 36°08' W 005°23'0 0.1
2018-May-03 17:20N 36°08' W 005°23'0 0.1
2018-May-03 16:47N 36°08' W 005°23'0 0.1
2018-May-03 16:20N 36°08' W 005°23'0 0.0
2018-May-03 15:56N 36°08' W 005°23'0 0.1
2018-May-03 15:26N 36°08' W 005°23'0 0.1
2018-May-03 13:44N 36°08' W 005°23'0 0.2
2018-May-03 13:26N 36°08' W 005°23'0 0.2
2018-May-03 12:59N 36°08' W 005°23'0 0.0
2018-May-03 12:26N 36°08' W 005°23'0 0.5
2018-May-03 11:38N 36°08' W 005°23'0 0.2
2018-May-03 11:26N 36°08' W 005°23'0 0.1
2018-May-03 10:59N 36°08' W 005°23'0 0.2
2018-May-03 10:30N 36°08' W 005°23'2 3.5
2018-May-03 10:00N 36°06' W 005°22'1 1.3
2018-May-03 09:30N 36°05' W 005°22'1 2.7
2018-May-03 09:00N 36°05' W 005°20'  
2018-Apr-29 10:28N 36°33' E 013°50'1312.5
2018-Apr-29 09:27N 36°28' E 014°05'612.4
2018-Apr-29 09:00N 36°26' E 014°12'612.5
2018-Apr-29 08:30N 36°24' E 014°19'612.5
2018-Apr-29 08:00N 36°22' E 014°26'612.3
2018-Apr-29 07:30N 36°19' E 014°33'612.4
2018-Apr-29 07:00N 36°17' E 014°40'612.2
2018-Apr-29 06:30N 36°15' E 014°48'  
Track history (hours):
 
Tides and Currents Weather Stations Pressure Air Temp Water Temp Dewpoint Dewpoint Depression Visibility Wind Speed Wind Dir Waves Ship Positions

Cape Bari

Last reported at 2018-May-09 04:20 UTC. Time now 2018-Jun-25 09:37 UTC.
Position N 38°19' W 034°46'.
Warning: this ship's position is 47 days out of date.

Length 283 m; draft 15 m.

Type: Tanker. MMSI: 538090174.

Date/timePositionNaut miles runAvg speedWind from/ knotsBaromVisibWave heightAir tempDewpointWater temp
2018-May-09 04:20N 38°19' W 034°46'712.4
2018-May-09 03:47N 38°19' W 034°37'412.6
2018-May-09 03:29N 38°19' W 034°33'612.7
2018-May-09 03:00N 38°18' W 034°25'812.7
2018-May-09 02:22N 38°17' W 034°15'512.8
2018-May-09 01:59N 38°16' W 034°09'613.0
2018-May-09 01:30N 38°16' W 034°01'612.9
2018-May-09 01:00N 38°15' W 033°52'912.7
2018-May-09 00:19N 38°14' W 033°41'412.5
2018-May-09 00:00N 38°14' W 033°36'612.4
2018-May-08 23:30N 38°13' W 033°29'612.4
2018-May-08 23:00N 38°12' W 033°21'612.0
2018-May-08 22:30N 38°11' W 033°13'3312.4
2018-May-08 19:48N 38°08' W 032°31'412.1
2018-May-08 19:30N 38°08' W 032°26'911.9
2018-May-08 18:45N 38°07' W 032°15'311.9
2018-May-08 18:30N 38°06' W 032°11'2611.6
2018-May-08 16:16N 38°04' W 031°38'2611.7
2018-May-08 14:04N 38°01' W 031°06'111.8
2018-May-08 14:00N 38°01' W 031°05'612.2
2018-May-08 13:30N 37°60' W 030°57'612.1
2018-May-08 13:00N 37°59' W 030°50'612.4
2018-May-08 12:30N 37°59' W 030°42'1512.1
2018-May-08 11:16N 37°57' W 030°23'312.4
2018-May-08 11:00N 37°57' W 030°19'612.0
2018-May-08 10:30N 37°56' W 030°12'612.1
2018-May-08 10:01N 37°55' W 030°04'612.1
2018-May-08 09:30N 37°55' W 029°56'612.2
2018-May-08 09:01N 37°54' W 029°49'612.3
2018-May-08 08:30N 37°54' W 029°41'612.0
2018-May-08 08:01N 37°53' W 029°33'612.4
2018-May-08 07:31N 37°52' W 029°25'612.3
2018-May-08 07:00N 37°52' W 029°18'612.4
2018-May-08 06:31N 37°51' W 029°10'612.4
2018-May-08 06:00N 37°51' W 029°02'612.5
2018-May-08 05:30N 37°50' W 028°54'612.5
2018-May-08 05:00N 37°49' W 028°46'612.5
2018-May-08 04:30N 37°48' W 028°38'612.4
2018-May-08 04:00N 37°47' W 028°31'612.3
2018-May-08 03:31N 37°47' W 028°23'612.8
2018-May-08 03:01N 37°46' W 028°15'612.6
2018-May-08 02:31N 37°46' W 028°07'612.7
2018-May-08 02:00N 37°45' W 027°59'612.5
2018-May-08 01:30N 37°44' W 027°51'612.5
2018-May-08 01:00N 37°44' W 027°43'612.3
2018-May-08 00:30N 37°43' W 027°35'612.4
2018-May-08 00:00N 37°42' W 027°28'612.4
2018-May-07 23:30N 37°42' W 027°20'612.4
2018-May-07 23:00N 37°41' W 027°12'612.3
2018-May-07 22:30N 37°40' W 027°04'612.4
2018-May-07 22:00N 37°40' W 026°57'612.4
2018-May-07 21:30N 37°40' W 026°49'612.1
2018-May-07 21:00N 37°40' W 026°41'612.0
2018-May-07 20:30N 37°38' W 026°34'612.1
2018-May-07 20:00N 37°37' W 026°26'612.3
2018-May-07 19:30N 37°36' W 026°19'611.9
2018-May-07 19:00N 37°36' W 026°11'611.8
2018-May-07 18:31N 37°35' W 026°04'612.1
2018-May-07 18:00N 37°34' W 025°56'612.1
2018-May-07 17:30N 37°33' W 025°49'612.2
2018-May-07 17:00N 37°33' W 025°41'612.2
2018-May-07 16:30N 37°32' W 025°33'612.3
2018-May-07 16:00N 37°32' W 025°26'612.3
2018-May-07 15:30N 37°31' W 025°18'612.4
2018-May-07 15:00N 37°31' W 025°10'612.2
2018-May-07 14:30N 37°30' W 025°02'612.1
2018-May-07 14:00N 37°30' W 024°55'612.1
2018-May-07 13:31N 37°29' W 024°47'612.5
2018-May-07 13:00N 37°28' W 024°40'612.1
2018-May-07 12:30N 37°27' W 024°32'611.8
2018-May-07 12:01N 37°27' W 024°25'611.8
2018-May-07 11:30N 37°26' W 024°17'611.7
2018-May-07 11:00N 37°26' W 024°10'611.8
2018-May-07 10:30N 37°25' W 024°02'612.0
2018-May-07 10:00N 37°24' W 023°55'612.0
2018-May-07 09:31N 37°23' W 023°47'612.0
2018-May-07 09:00N 37°22' W 023°40'611.8
2018-May-07 08:30N 37°22' W 023°33'611.8
2018-May-07 07:59N 37°21' W 023°25'611.8
2018-May-07 07:30N 37°21' W 023°18'712.0
2018-May-07 06:57N 37°20' W 023°10'3312.0
2018-May-07 04:13N 37°17' W 022°28'412.3
2018-May-07 03:52N 37°16' W 022°23'512.4
2018-May-07 03:29N 37°16' W 022°17'712.5
2018-May-07 02:57N 37°15' W 022°09'912.5
2018-May-07 02:16N 37°14' W 021°58'35712.4
2018-May-05 21:31N 36°36' W 014°35'10212.5
2018-May-05 13:21N 36°24' W 012°28'412.5
2018-May-05 13:00N 36°24' W 012°23'712.3
2018-May-05 12:27N 36°24' W 012°15'15112.1
2018-May-05 00:01N 36°10' W 009°08'212.4
2018-May-04 23:51N 36°10' W 009°05'1512.1
2018-May-04 22:38N 36°09' W 008°47'311.7
2018-May-04 22:24N 36°08' W 008°44'512.2
2018-May-04 22:00N 36°08' W 008°38'5112.2
2018-May-04 17:50N 36°03' W 007°35'9711.5
2018-May-04 09:24N 35°58' W 005°36'4 9.0
2018-May-04 08:59N 35°59' W 005°31'4 9.1
2018-May-04 08:30N 36°00' W 005°26'4 8.0
2018-May-04 08:00N 36°03' W 005°23'2 3.8
2018-May-04 07:30N 36°05' W 005°23'3 5.0
2018-May-04 07:00N 36°08' W 005°23'0 0.5
2018-May-04 06:20N 36°08' W 005°23'0 0.3
2018-May-04 05:56N 36°08' W 005°23'0 0.0
2018-May-04 05:26N 36°08' W 005°23'0 0.0
2018-May-04 04:56N 36°08' W 005°23'0 0.0
2018-May-04 04:14N 36°08' W 005°23'0 0.0
2018-May-04 04:00N 36°08' W 005°23'0 0.1
2018-May-04 03:29N 36°08' W 005°23'0 0.0
2018-May-04 02:32N 36°08' W 005°23'0 0.1
2018-May-04 02:26N 36°08' W 005°23'0 0.2
2018-May-04 01:57N 36°08' W 005°23'0 0.1
2018-May-04 01:26N 36°08' W 005°23'0 0.1
2018-May-04 00:59N 36°08' W 005°23'0 0.1
2018-May-04 00:26N 36°08' W 005°23'0 0.2
2018-May-03 23:56N 36°08' W 005°23'0 0.5
2018-May-03 23:20N 36°08' W 005°23'0 0.2
2018-May-03 22:50N 36°08' W 005°23'0 0.0
2018-May-03 22:20N 36°08' W 005°23'0 0.0
2018-May-03 21:56N 36°08' W 005°23'0 0.0
2018-May-03 21:26N 36°08' W 005°23'0 0.0
2018-May-03 20:56N 36°08' W 005°23'0 0.2
2018-May-03 19:38N 36°08' W 005°23'0 0.1
2018-May-03 19:29N 36°08' W 005°23'0 0.1
2018-May-03 18:26N 36°08' W 005°23'0 0.3
2018-May-03 17:59N 36°08' W 005°23'0 0.1
2018-May-03 17:20N 36°08' W 005°23'0 0.1
2018-May-03 16:47N 36°08' W 005°23'0 0.1
2018-May-03 16:20N 36°08' W 005°23'0 0.0
2018-May-03 15:56N 36°08' W 005°23'0 0.1
2018-May-03 15:26N 36°08' W 005°23'0 0.1
2018-May-03 13:44N 36°08' W 005°23'0 0.2
2018-May-03 13:26N 36°08' W 005°23'0 0.2
2018-May-03 12:59N 36°08' W 005°23'0 0.0
2018-May-03 12:26N 36°08' W 005°23'0 0.5
2018-May-03 11:38N 36°08' W 005°23'0 0.2
2018-May-03 11:26N 36°08' W 005°23'0 0.1
2018-May-03 10:59N 36°08' W 005°23'0 0.2
2018-May-03 10:30N 36°08' W 005°23'2 3.5
2018-May-03 10:00N 36°06' W 005°22'1 1.3
2018-May-03 09:30N 36°05' W 005°22'1 2.7
2018-May-03 09:00N 36°05' W 005°20'  
2018-Apr-29 10:28N 36°33' E 013°50'1312.5
2018-Apr-29 09:27N 36°28' E 014°05'612.4
2018-Apr-29 09:00N 36°26' E 014°12'612.5
2018-Apr-29 08:30N 36°24' E 014°19'612.5
2018-Apr-29 08:00N 36°22' E 014°26'612.3
2018-Apr-29 07:30N 36°19' E 014°33'612.4
2018-Apr-29 07:00N 36°17' E 014°40'612.2
2018-Apr-29 06:30N 36°15' E 014°48'  

Dump ship's entire track history